Jena Marie C. — WDD4969 — position and weather

sailwx.info

Track history (hours):
 
Tides and Currents Weather Stations Pressure Air Temp Water Temp Dewpoint Dewpoint Depression Visibility Wind Speed Wind Dir Waves Ship Positions

Jena Marie C.

Owner: Scott C. Marine Towing, LLC, Marrero, LA. More information available from US FCC via Universal Licensing System and Coast Guard Vessel Documentation Center.

Last reported at 2014-Dec-15 08:33 UTC. Time now 2014-Dec-21 10:00 UTC.
Position N 30°01' W 089°54'.

Length 19 m; draft 2.5 m.

Type: Towing. MMSI: 367151880.

Date/timePositionNaut miles runAvg speedWind from/ knotsBaromVisibWave heightAir tempDewpointWater temp
2014-Dec-15 08:33N 30°01' W 089°54'6 6.2
2014-Dec-15 07:32N 29°59' W 090°01'2 1.7
2014-Dec-15 06:32N 29°58' W 090°02'1 0.6
2014-Dec-15 05:32N 29°57' W 090°02'0 0.1
2014-Dec-15 04:33N 29°57' W 090°02'0 0.0
2014-Dec-15 03:33N 29°57' W 090°02'0 0.0
2014-Dec-15 02:23N 29°57' W 090°02'0 0.0
2014-Dec-15 01:31N 29°57' W 090°02'0 0.0
2014-Dec-15 00:32N 29°57' W 090°02'0 0.0
2014-Dec-14 23:31N 29°57' W 090°02'0 0.0
2014-Dec-14 14:33N 29°57' W 090°02'0 0.0
2014-Dec-14 13:33N 29°57' W 090°02'0 0.0
2014-Dec-14 12:33N 29°57' W 090°02'0 0.0
2014-Dec-14 11:32N 29°57' W 090°02'0 0.0
2014-Dec-14 10:33N 29°57' W 090°02'0 0.0
2014-Dec-14 09:33N 29°57' W 090°02'0 0.0
2014-Dec-14 08:30N 29°57' W 090°02'2 2.1
2014-Dec-14 07:33N 29°56' W 090°04'6 5.1
2014-Dec-14 06:28N 29°57' W 090°10'3 0.2
2014-Dec-13 08:18N 29°54' W 090°07'0 0.0
2014-Dec-13 07:12N 29°54' W 090°07'0 0.0
2014-Dec-13 06:33N 29°54' W 090°07'0 0.0
2014-Dec-13 05:14N 29°54' W 090°07'0 0.0
2014-Dec-13 04:19N 29°54' W 090°07'0 0.0
2014-Dec-13 03:32N 29°54' W 090°07'0 0.0
2014-Dec-13 02:06N 29°54' W 090°07'0 0.0
2014-Dec-13 00:04N 29°54' W 090°07'0 0.0
2014-Dec-12 23:30N 29°54' W 090°07'0 0.0
2014-Dec-12 22:14N 29°54' W 090°07'0 0.0
2014-Dec-12 21:05N 29°54' W 090°07'0 0.0
2014-Dec-12 20:23N 29°54' W 090°07'0 0.0
2014-Dec-12 19:33N 29°54' W 090°07'0 0.0
2014-Dec-12 18:26N 29°54' W 090°07'0 0.0
2014-Dec-12 17:33N 29°54' W 090°07'0 0.0
2014-Dec-12 16:32N 29°54' W 090°07'0 0.0
2014-Dec-12 15:31N 29°54' W 090°07'0 0.0
2014-Dec-12 14:32N 29°54' W 090°07'0 0.0
2014-Dec-12 13:33N 29°54' W 090°07'0 0.0
2014-Dec-12 12:33N 29°54' W 090°07'0 0.0
2014-Dec-12 11:33N 29°54' W 090°07'0 0.0
2014-Dec-10 14:30N 29°54' W 090°07'0 0.1
2014-Dec-10 13:10N 29°54' W 090°07'0 0.0
2014-Dec-10 12:30N 29°54' W 090°07'0 0.0
2014-Dec-10 11:33N 29°54' W 090°07'0 0.0
2014-Dec-10 10:33N 29°54' W 090°07'0 0.0
2014-Dec-10 09:31N 29°54' W 090°07'0 0.0
2014-Dec-10 08:32N 29°54' W 090°07'0 0.0
2014-Dec-10 07:18N 29°54' W 090°07'0 0.0
2014-Dec-10 06:30N 29°54' W 090°07'0 0.0
2014-Dec-10 05:14N 29°54' W 090°07'8 0.4
2014-Dec-09 11:09N 30°00' W 090°01'0 0.0
2014-Dec-09 10:04N 30°00' W 090°01'0 0.0
2014-Dec-09 09:08N 30°00' W 090°01'0 0.0
2014-Dec-09 08:24N 30°00' W 090°01'0 0.0
2014-Dec-09 07:29N 30°00' W 090°01'0 0.0
2014-Dec-09 06:29N 30°00' W 090°01'0 0.0
2014-Dec-09 05:30N 30°00' W 090°01'0 0.0
2014-Dec-09 04:31N 30°00' W 090°01'0 0.0
2014-Dec-09 03:33N 30°00' W 090°01'0 0.0
2014-Dec-09 02:33N 30°00' W 090°01'0 0.1
2014-Dec-09 01:33N 29°60' W 090°01'4 3.8
2014-Dec-09 00:32N 30°00' W 089°57'9 0.2
2014-Dec-07 12:26N 29°55' W 090°05'4 4.7
2014-Dec-07 11:33N 29°56' W 090°00'4 0.1
2014-Dec-06 02:24N 29°55' W 089°56'4 0.5
2014-Dec-05 18:31N 29°56' W 090°00'6 6.0
2014-Dec-05 17:33N 29°54' W 090°06'3 1.4
2014-Dec-05 15:26N 29°57' W 090°08'3 2.9
2014-Dec-05 14:32N 29°54' W 090°07'0 0.0
2014-Dec-05 13:33N 29°54' W 090°07'  
Track history (hours):
 
Tides and Currents Weather Stations Pressure Air Temp Water Temp Dewpoint Dewpoint Depression Visibility Wind Speed Wind Dir Waves Ship Positions

Jena Marie C.

Owner: Scott C. Marine Towing, LLC, Marrero, LA. More information available from US FCC via Universal Licensing System and Coast Guard Vessel Documentation Center.

Last reported at 2014-Dec-15 08:33 UTC. Time now 2014-Dec-21 10:00 UTC.
Position N 30°01' W 089°54'.

Length 19 m; draft 2.5 m.

Type: Towing. MMSI: 367151880.

Date/timePositionNaut miles runAvg speedWind from/ knotsBaromVisibWave heightAir tempDewpointWater temp
2014-Dec-15 08:33N 30°01' W 089°54'6 6.2
2014-Dec-15 07:32N 29°59' W 090°01'2 1.7
2014-Dec-15 06:32N 29°58' W 090°02'1 0.6
2014-Dec-15 05:32N 29°57' W 090°02'0 0.1
2014-Dec-15 04:33N 29°57' W 090°02'0 0.0
2014-Dec-15 03:33N 29°57' W 090°02'0 0.0
2014-Dec-15 02:23N 29°57' W 090°02'0 0.0
2014-Dec-15 01:31N 29°57' W 090°02'0 0.0
2014-Dec-15 00:32N 29°57' W 090°02'0 0.0
2014-Dec-14 23:31N 29°57' W 090°02'0 0.0
2014-Dec-14 14:33N 29°57' W 090°02'0 0.0
2014-Dec-14 13:33N 29°57' W 090°02'0 0.0
2014-Dec-14 12:33N 29°57' W 090°02'0 0.0
2014-Dec-14 11:32N 29°57' W 090°02'0 0.0
2014-Dec-14 10:33N 29°57' W 090°02'0 0.0
2014-Dec-14 09:33N 29°57' W 090°02'0 0.0
2014-Dec-14 08:30N 29°57' W 090°02'2 2.1
2014-Dec-14 07:33N 29°56' W 090°04'6 5.1
2014-Dec-14 06:28N 29°57' W 090°10'3 0.2
2014-Dec-13 08:18N 29°54' W 090°07'0 0.0
2014-Dec-13 07:12N 29°54' W 090°07'0 0.0
2014-Dec-13 06:33N 29°54' W 090°07'0 0.0
2014-Dec-13 05:14N 29°54' W 090°07'0 0.0
2014-Dec-13 04:19N 29°54' W 090°07'0 0.0
2014-Dec-13 03:32N 29°54' W 090°07'0 0.0
2014-Dec-13 02:06N 29°54' W 090°07'0 0.0
2014-Dec-13 00:04N 29°54' W 090°07'0 0.0
2014-Dec-12 23:30N 29°54' W 090°07'0 0.0
2014-Dec-12 22:14N 29°54' W 090°07'0 0.0
2014-Dec-12 21:05N 29°54' W 090°07'0 0.0
2014-Dec-12 20:23N 29°54' W 090°07'0 0.0
2014-Dec-12 19:33N 29°54' W 090°07'0 0.0
2014-Dec-12 18:26N 29°54' W 090°07'0 0.0
2014-Dec-12 17:33N 29°54' W 090°07'0 0.0
2014-Dec-12 16:32N 29°54' W 090°07'0 0.0
2014-Dec-12 15:31N 29°54' W 090°07'0 0.0
2014-Dec-12 14:32N 29°54' W 090°07'0 0.0
2014-Dec-12 13:33N 29°54' W 090°07'0 0.0
2014-Dec-12 12:33N 29°54' W 090°07'0 0.0
2014-Dec-12 11:33N 29°54' W 090°07'0 0.0
2014-Dec-10 14:30N 29°54' W 090°07'0 0.1
2014-Dec-10 13:10N 29°54' W 090°07'0 0.0
2014-Dec-10 12:30N 29°54' W 090°07'0 0.0
2014-Dec-10 11:33N 29°54' W 090°07'0 0.0
2014-Dec-10 10:33N 29°54' W 090°07'0 0.0
2014-Dec-10 09:31N 29°54' W 090°07'0 0.0
2014-Dec-10 08:32N 29°54' W 090°07'0 0.0
2014-Dec-10 07:18N 29°54' W 090°07'0 0.0
2014-Dec-10 06:30N 29°54' W 090°07'0 0.0
2014-Dec-10 05:14N 29°54' W 090°07'8 0.4
2014-Dec-09 11:09N 30°00' W 090°01'0 0.0
2014-Dec-09 10:04N 30°00' W 090°01'0 0.0
2014-Dec-09 09:08N 30°00' W 090°01'0 0.0
2014-Dec-09 08:24N 30°00' W 090°01'0 0.0
2014-Dec-09 07:29N 30°00' W 090°01'0 0.0
2014-Dec-09 06:29N 30°00' W 090°01'0 0.0
2014-Dec-09 05:30N 30°00' W 090°01'0 0.0
2014-Dec-09 04:31N 30°00' W 090°01'0 0.0
2014-Dec-09 03:33N 30°00' W 090°01'0 0.0
2014-Dec-09 02:33N 30°00' W 090°01'0 0.1
2014-Dec-09 01:33N 29°60' W 090°01'4 3.8
2014-Dec-09 00:32N 30°00' W 089°57'9 0.2
2014-Dec-07 12:26N 29°55' W 090°05'4 4.7
2014-Dec-07 11:33N 29°56' W 090°00'4 0.1
2014-Dec-06 02:24N 29°55' W 089°56'4 0.5
2014-Dec-05 18:31N 29°56' W 090°00'6 6.0
2014-Dec-05 17:33N 29°54' W 090°06'3 1.4
2014-Dec-05 15:26N 29°57' W 090°08'3 2.9
2014-Dec-05 14:32N 29°54' W 090°07'0 0.0
2014-Dec-05 13:33N 29°54' W 090°07'  

Dump ship's entire track history